Time;durP1;ratioP1;P1;durP2;ratioP2;P2;SDS_P1;SDS_P2;PMS_P1;PMS_P2;Temp;Humidity;BMP_temperature;BMP_pressure;BME280_temperature;BME280_humidity;BME280_pressure;Samples;Min_cycle;Max_cycle;Signal;HPM_P1;HPM_P2
2021/08/08 00:02:22;;;;;;;5.53;3.55;;;28.20;82.90;;;;;;4842546;29;20042;-48
2021/08/08 00:04:50;;;;;;;8.23;4.88;;;28.10;82.90;;;;;;4842194;29;20389;-44
2021/08/08 00:07:18;;;;;;;4.90;3.28;;;28.10;83.10;;;;;;4826235;29;20103;-43
2021/08/08 00:09:46;;;;;;;7.10;3.63;;;28.10;83.10;;;;;;4841756;29;20078;-43
2021/08/08 00:12:14;;;;;;;6.82;3.30;;;28.10;83.10;;;;;;4833550;29;20049;-43
2021/08/08 00:14:42;;;;;;;6.28;4.15;;;28.10;83.10;;;;;;4841549;29;20114;-44
2021/08/08 00:17:09;;;;;;;8.90;4.07;;;28.10;83.50;;;;;;4842110;29;20144;-45
2021/08/08 00:19:37;;;;;;;6.07;3.63;;;28.00;83.90;;;;;;4841839;29;20046;-43
2021/08/08 00:22:05;;;;;;;6.22;3.88;;;28.00;84.10;;;;;;4825846;29;20521;-44
2021/08/08 00:24:33;;;;;;;6.95;3.40;;;28.00;84.40;;;;;;4825920;29;20050;-49
2021/08/08 00:27:04;;;;;;;6.10;3.72;;;27.90;84.40;;;;;;4827379;29;20117;-42
2021/08/08 00:29:33;;;;;;;7.70;3.55;;;27.90;84.40;;;;;;4841312;29;20042;-43
2021/08/08 00:32:01;;;;;;;8.07;3.80;;;27.80;84.40;;;;;;4841705;29;20064;-43
2021/08/08 00:34:29;;;;;;;6.88;3.90;;;27.70;84.50;;;;;;4840925;29;20069;-43
2021/08/08 00:36:59;;;;;;;8.13;3.03;;;27.70;84.90;;;;;;4810849;29;20054;-46
2021/08/08 00:39:28;;;;;;;8.05;3.58;;;27.60;85.00;;;;;;4825569;29;20142;-43
2021/08/08 00:41:56;;;;;;;8.02;4.10;;;27.60;84.90;;;;;;4811067;29;20049;-43
2021/08/08 00:44:27;;;;;;;7.90;4.28;;;27.60;84.70;;;;;;4826248;29;20457;-46
2021/08/08 00:46:55;;;;;;;9.43;5.00;;;27.50;84.60;;;;;;4841682;29;20058;-43
2021/08/08 00:49:25;;;;;;;6.28;4.47;;;27.30;84.80;;;;;;4840753;29;20078;-43
2021/08/08 00:51:54;;;;;;;7.97;5.00;;;27.20;85.30;;;;;;4824534;29;20534;-46
2021/08/08 00:54:27;;;;;;;10.73;4.93;;;27.20;85.40;;;;;;4840367;29;20042;-43
2021/08/08 00:56:56;;;;;;;7.95;4.93;;;27.30;85.30;;;;;;4840840;29;20090;-44
2021/08/08 00:59:24;;;;;;;7.80;4.57;;;27.30;85.20;;;;;;4825194;29;20379;-46
2021/08/08 01:01:54;;;;;;;8.63;4.50;;;27.30;85.50;;;;;;4840405;29;20054;-46
2021/08/08 01:04:29;;;;;;;7.95;4.13;;;27.30;85.40;;;;;;4825578;29;20046;-43
2021/08/08 01:07:08;;;;;;;7.63;4.95;;;27.30;85.30;;;;;;4824980;29;20072;-43
2021/08/08 01:09:40;;;;;;;6.88;4.32;;;27.30;85.40;;;;;;4824668;29;20049;-42
2021/08/08 01:12:10;;;;;;;6.82;3.92;;;27.40;85.30;;;;;;4810002;29;20057;-45
2021/08/08 01:14:45;;;;;;;8.45;4.75;;;27.40;85.40;;;;;;4839956;29;20140;-46
2021/08/08 01:17:15;;;;;;;7.10;4.40;;;27.50;85.30;;;;;;4817596;29;20049;-43
2021/08/08 01:20:07;;;;;;;7.10;3.95;;;27.50;85.40;;;;;;4825102;29;20102;-45
2021/08/08 01:22:57;;;;;;;6.18;3.97;;;27.40;85.50;;;;;;4836958;29;20045;-43
2021/08/08 01:25:25;;;;;;;7.63;3.75;;;27.30;85.80;;;;;;4838550;29;20046;-46
2021/08/08 01:27:57;;;;;;;10.00;5.05;;;27.20;86.10;;;;;;4809593;29;20094;-42
2021/08/08 01:30:27;;;;;;;5.53;3.60;;;27.20;86.40;;;;;;4825176;29;20049;-42
2021/08/08 01:33:08;;;;;;;6.47;3.97;;;27.20;87.30;;;;;;4840203;29;20073;-43
2021/08/08 01:35:58;;;;;;;4.53;3.65;;;27.20;88.40;;;;;;4841120;29;20042;-46
2021/08/08 01:38:31;;;;;;;7.53;4.05;;;27.20;89.20;;;;;;4824251;29;20045;-43
2021/08/08 01:41:06;;;;;;;5.22;3.97;;;27.20;89.90;;;;;;4809297;29;20175;-43
2021/08/08 01:43:49;;;;;;;7.65;3.67;;;27.10;89.80;;;;;;4824649;29;20412;-45
2021/08/08 01:46:22;;;;;;;8.23;4.40;;;27.10;89.40;;;;;;4839361;29;20056;-43
2021/08/08 01:49:13;;;;;;;8.10;3.88;;;27.10;89.20;;;;;;4829990;29;20946;-45
2021/08/08 01:51:42;;;;;;;8.25;3.92;;;26.90;89.60;;;;;;4836141;29;20505;-43
2021/08/08 01:54:13;;;;;;;7.65;3.75;;;26.70;90.10;;;;;;4809071;29;20079;-43
2021/08/08 01:56:43;;;;;;;8.75;4.50;;;26.60;90.40;;;;;;4820582;29;20715;-44
2021/08/08 01:59:12;;;;;;;4.63;3.50;;;26.60;90.40;;;;;;4839327;29;20044;-45
2021/08/08 02:01:41;;;;;;;8.40;3.67;;;26.70;90.40;;;;;;4839766;29;20581;-43
2021/08/08 02:04:25;;;;;;;5.15;3.20;;;26.80;90.40;;;;;;4839273;29;20549;-43
2021/08/08 02:07:12;;;;;;;8.55;4.32;;;26.80;90.50;;;;;;4823852;29;20126;-43
2021/08/08 02:09:41;;;;;;;11.98;4.10;;;26.80;90.70;;;;;;4823716;29;20144;-44
2021/08/08 02:12:10;;;;;;;5.25;3.65;;;26.50;91.30;;;;;;4824213;29;20058;-46
2021/08/08 02:14:39;;;;;;;7.00;3.67;;;26.40;91.60;;;;;;4809119;29;20417;-44
2021/08/08 02:17:09;;;;;;;11.27;3.88;;;26.30;91.70;;;;;;4839827;29;20045;-46
2021/08/08 02:19:42;;;;;;;5.07;3.00;;;26.20;91.90;;;;;;4825040;29;20446;-44
2021/08/08 02:22:10;;;;;;;6.30;3.53;;;26.00;92.20;;;;;;4824170;29;20100;-42
2021/08/08 02:24:45;;;;;;;8.48;4.43;;;25.90;92.20;;;;;;4838752;29;20065;-43
2021/08/08 02:27:27;;;;;;;6.57;3.40;;;26.00;92.30;;;;;;4817685;29;20102;-44
2021/08/08 02:30:08;;;;;;;7.80;4.47;;;26.00;92.40;;;;;;4841911;29;20331;-46
2021/08/08 02:32:37;;;;;;;6.10;3.15;;;26.00;92.40;;;;;;4828203;29;20543;-44
2021/08/08 02:35:06;;;;;;;9.18;3.70;;;26.00;92.40;;;;;;4828008;29;20037;-47
2021/08/08 02:37:38;;;;;;;8.18;3.40;;;26.00;92.50;;;;;;4813567;29;20466;-44
2021/08/08 02:40:06;;;;;;;8.90;3.60;;;26.10;92.50;;;;;;4842273;29;20056;-43
2021/08/08 02:42:34;;;;;;;7.25;3.95;;;26.00;92.40;;;;;;4827602;29;20045;-42
2021/08/08 02:45:04;;;;;;;9.68;3.58;;;26.00;92.50;;;;;;4827474;29;20505;-45
2021/08/08 02:47:31;;;;;;;6.82;3.63;;;25.90;92.60;;;;;;4843088;29;20079;-45
2021/08/08 02:50:02;;;;;;;10.50;3.78;;;25.70;92.80;;;;;;4827220;29;20042;-42
2021/08/08 02:52:31;;;;;;;5.78;3.40;;;25.60;93.00;;;;;;4828046;29;20056;-43
2021/08/08 02:55:03;;;;;;;6.03;3.88;;;25.50;93.30;;;;;;4842666;29;20061;-43
2021/08/08 02:57:32;;;;;;;9.60;3.83;;;25.40;93.40;;;;;;4826909;29;20561;-44
2021/08/08 03:00:00;;;;;;;8.93;3.80;;;25.30;93.60;;;;;;4826753;29;20050;-44
2021/08/08 03:02:28;;;;;;;5.47;3.20;;;25.20;93.70;;;;;;4812587;29;20210;-46
2021/08/08 03:04:56;;;;;;;6.50;3.90;;;25.20;93.70;;;;;;4827501;29;20079;-42
2021/08/08 03:07:24;;;;;;;8.07;3.55;;;25.20;93.70;;;;;;4827254;29;20053;-44
2021/08/08 03:09:52;;;;;;;5.68;3.10;;;25.20;93.80;;;;;;4826972;29;20137;-47
2021/08/08 03:12:20;;;;;;;7.60;3.65;;;25.20;93.70;;;;;;4826646;29;20052;-43
2021/08/08 03:14:47;;;;;;;6.80;3.75;;;25.20;93.60;;;;;;4842925;29;20050;-43
2021/08/08 03:17:15;;;;;;;7.43;3.88;;;25.30;93.60;;;;;;4834736;29;20061;-45
2021/08/08 03:19:43;;;;;;;5.78;3.13;;;25.30;93.70;;;;;;4811651;29;20068;-43
2021/08/08 03:22:10;;;;;;;6.05;3.55;;;25.40;93.60;;;;;;4842202;29;20075;-43
2021/08/08 03:24:42;;;;;;;7.95;3.90;;;25.30;93.60;;;;;;4842196;29;20042;-44
2021/08/08 03:27:10;;;;;;;6.80;3.78;;;25.20;93.70;;;;;;4842090;29;20073;-46
2021/08/08 03:29:43;;;;;;;6.45;3.60;;;25.20;93.80;;;;;;4826860;29;20058;-44
2021/08/08 03:32:10;;;;;;;12.57;3.92;;;25.10;93.90;;;;;;4826581;29;20090;-44
2021/08/08 03:34:42;;;;;;;6.15;3.78;;;25.00;94.00;;;;;;4826903;29;20068;-44
2021/08/08 03:37:12;;;;;;;5.40;3.47;;;25.00;94.20;;;;;;4812635;29;20440;-43
2021/08/08 03:39:42;;;;;;;4.90;3.65;;;24.90;94.20;;;;;;4812000;29;20050;-43
2021/08/08 03:42:10;;;;;;;5.57;3.60;;;24.90;94.30;;;;;;4841424;29;20052;-43
2021/08/08 03:44:40;;;;;;;7.15;3.25;;;24.80;94.60;;;;;;4825737;29;20137;-43
2021/08/08 03:47:08;;;;;;;5.10;2.85;;;24.70;95.00;;;;;;4842110;29;20177;-44
2021/08/08 03:49:36;;;;;;;5.63;3.10;;;24.70;95.20;;;;;;4841782;29;20050;-43
2021/08/08 03:52:04;;;;;;;7.20;4.25;;;24.70;95.50;;;;;;4843206;29;20133;-45
2021/08/08 03:54:32;;;;;;;6.65;3.63;;;24.70;95.70;;;;;;4841885;29;20042;-45
2021/08/08 03:57:00;;;;;;;6.55;3.63;;;24.80;96.00;;;;;;4827157;29;20058;-44
2021/08/08 03:59:31;;;;;;;5.20;3.40;;;24.80;96.00;;;;;;4826131;29;20057;-47
2021/08/08 04:01:59;;;;;;;6.88;3.10;;;24.70;96.20;;;;;;4841406;29;20046;-43
2021/08/08 04:04:27;;;;;;;7.22;3.30;;;24.70;96.50;;;;;;4841406;29;20053;-44
2021/08/08 04:06:55;;;;;;;7.97;4.38;;;24.60;96.80;;;;;;4826438;29;20046;-43
2021/08/08 04:09:23;;;;;;;8.80;3.67;;;24.70;97.20;;;;;;4826299;29;20102;-44
2021/08/08 04:11:52;;;;;;;8.13;4.22;;;24.70;97.40;;;;;;4826168;29;20545;-43
2021/08/08 04:14:20;;;;;;;7.07;4.03;;;24.80;97.60;;;;;;4826164;29;20058;-46
2021/08/08 04:16:48;;;;;;;5.53;3.95;;;24.70;97.70;;;;;;4841523;29;20054;-44
2021/08/08 04:19:16;;;;;;;4.82;3.10;;;24.70;97.70;;;;;;4826535;29;20049;-45
2021/08/08 04:21:43;;;;;;;6.80;3.72;;;24.70;97.70;;;;;;4804771;29;20149;-44
2021/08/08 04:24:12;;;;;;;7.28;4.18;;;24.80;97.70;;;;;;4796031;29;20060;-46
2021/08/08 04:26:39;;;;;;;9.70;3.88;;;24.80;97.70;;;;;;4842525;29;20050;-46
2021/08/08 04:29:07;;;;;;;8.70;3.42;;;24.90;97.60;;;;;;4841124;29;20049;-44
2021/08/08 04:31:35;;;;;;;6.75;3.60;;;25.00;97.50;;;;;;4841125;29;20121;-44
2021/08/08 04:34:03;;;;;;;6.82;4.13;;;25.00;97.40;;;;;;4840683;29;20481;-44
2021/08/08 04:36:31;;;;;;;5.57;3.83;;;25.20;97.20;;;;;;4825815;29;20060;-43
2021/08/08 04:38:59;;;;;;;6.32;3.95;;;25.30;97.10;;;;;;4840619;29;20572;-44
2021/08/08 04:41:27;;;;;;;6.43;3.83;;;25.30;97.00;;;;;;4839322;29;20139;-45
2021/08/08 04:43:55;;;;;;;6.30;3.80;;;25.40;96.90;;;;;;4809884;29;20058;-44
2021/08/08 04:46:23;;;;;;;5.13;3.28;;;25.50;96.90;;;;;;4840442;29;20050;-44
2021/08/08 04:48:52;;;;;;;6.35;3.78;;;25.60;96.70;;;;;;4825785;29;20045;-46
2021/08/08 04:51:20;;;;;;;11.82;4.68;;;25.70;96.50;;;;;;4825958;29;20050;-44
2021/08/08 04:53:48;;;;;;;5.05;3.42;;;25.70;96.30;;;;;;4825352;29;20105;-45
2021/08/08 04:56:16;;;;;;;6.80;3.30;;;25.90;96.30;;;;;;4841280;29;20046;-45
2021/08/08 04:58:43;;;;;;;11.07;3.65;;;26.00;95.90;;;;;;4841214;29;20495;-44
2021/08/08 05:01:11;;;;;;;5.15;2.88;;;26.10;95.80;;;;;;4840555;29;20102;-43
2021/08/08 05:03:39;;;;;;;5.82;3.13;;;26.20;95.70;;;;;;4841017;29;20068;-43
2021/08/08 05:06:06;;;;;;;5.45;3.55;;;26.30;95.50;;;;;;4825223;29;20459;-43
2021/08/08 05:08:34;;;;;;;6.80;4.00;;;26.50;95.30;;;;;;4840831;29;20049;-44
2021/08/08 05:11:02;;;;;;;5.30;3.10;;;26.50;95.10;;;;;;4825360;29;20195;-43
2021/08/08 05:13:31;;;;;;;7.28;3.60;;;26.60;94.90;;;;;;4825632;29;20061;-43
2021/08/08 05:16:01;;;;;;;7.25;3.05;;;26.80;94.70;;;;;;4824836;29;20098;-47
2021/08/08 05:18:28;;;;;;;5.88;3.70;;;27.10;94.60;;;;;;4825446;29;20042;-43
2021/08/08 05:20:58;;;;;;;5.13;3.15;;;27.30;94.00;;;;;;4839784;29;20062;-43
2021/08/08 05:23:25;;;;;;;7.43;3.45;;;27.30;93.60;;;;;;4841096;29;20046;-43
2021/08/08 05:25:59;;;;;;;3.80;2.95;;;27.40;93.40;;;;;;4825197;29;20072;-44
2021/08/08 05:28:28;;;;;;;6.45;3.53;;;27.70;93.20;;;;;;4841732;29;20519;-44
2021/08/08 05:30:56;;;;;;;6.32;2.88;;;27.80;92.60;;;;;;4839864;29;20049;-44
2021/08/08 05:33:24;;;;;;;6.25;3.40;;;28.00;92.30;;;;;;4839569;29;20057;-45
2021/08/08 05:35:52;;;;;;;6.50;3.08;;;28.20;91.90;;;;;;4823693;29;20077;-45
2021/08/08 05:38:20;;;;;;;5.13;2.53;;;28.30;91.60;;;;;;4821121;29;20054;-46
2021/08/08 05:40:48;;;;;;;5.63;3.38;;;28.60;91.30;;;;;;4823699;29;20057;-44
2021/08/08 05:43:15;;;;;;;5.43;2.88;;;28.80;90.70;;;;;;4840151;29;20050;-44
2021/08/08 05:45:47;;;;;;;8.30;3.30;;;29.00;90.10;;;;;;4838538;29;20501;-45
2021/08/08 05:48:16;;;;;;;5.70;2.40;;;29.20;89.00;;;;;;4823907;29;20049;-46
2021/08/08 05:50:44;;;;;;;6.43;2.67;;;29.40;88.00;;;;;;4823151;29;20050;-46
2021/08/08 05:53:12;;;;;;;4.45;3.10;;;29.40;87.30;;;;;;4838657;29;20073;-45
2021/08/08 05:55:46;;;;;;;6.78;3.00;;;29.60;86.60;;;;;;4823433;29;20065;-49
2021/08/08 05:58:17;;;;;;;4.28;2.72;;;29.80;85.00;;;;;;4838883;29;20090;-45
2021/08/08 06:00:46;;;;;;;7.05;2.50;;;29.80;84.20;;;;;;4838353;29;20138;-47
2021/08/08 06:03:15;;;;;;;4.78;2.22;;;30.00;83.10;;;;;;4823436;29;20072;-47
2021/08/08 06:05:44;;;;;;;5.90;2.40;;;30.10;79.70;;;;;;4823043;29;20054;-45
2021/08/08 06:08:12;;;;;;;5.20;2.30;;;30.20;77.00;;;;;;4838757;29;20050;-49
2021/08/08 06:10:40;;;;;;;6.75;2.40;;;30.30;76.60;;;;;;4823418;29;20458;-46
2021/08/08 06:13:10;;;;;;;5.70;1.98;;;30.40;75.60;;;;;;4824486;29;20057;-44
2021/08/08 06:15:39;;;;;;;10.27;2.80;;;30.40;74.40;;;;;;4823474;29;20408;-44
2021/08/08 06:18:09;;;;;;;4.30;2.83;;;30.50;74.00;;;;;;4839057;29;20501;-43
2021/08/08 06:20:37;;;;;;;7.22;3.47;;;30.60;72.60;;;;;;4837882;29;20198;-44
2021/08/08 06:23:06;;;;;;;5.80;3.10;;;30.70;71.40;;;;;;4838451;29;20042;-45
2021/08/08 06:25:34;;;;;;;7.35;3.28;;;30.80;71.10;;;;;;4838741;29;20505;-43
2021/08/08 06:28:02;;;;;;;6.45;3.47;;;30.90;71.00;;;;;;4823710;29;20057;-43
2021/08/08 06:30:30;;;;;;;5.75;2.70;;;31.00;68.60;;;;;;4823889;29;20462;-44
2021/08/08 06:32:58;;;;;;;6.35;2.42;;;31.00;69.00;;;;;;4838909;29;20046;-43
2021/08/08 06:35:26;;;;;;;3.55;2.30;;;31.20;67.90;;;;;;4837986;29;20050;-43
2021/08/08 06:37:54;;;;;;;4.57;2.47;;;31.20;67.60;;;;;;4838219;29;20065;-43
2021/08/08 06:40:22;;;;;;;5.50;3.08;;;31.20;68.20;;;;;;4838562;29;20056;-44
2021/08/08 06:42:50;;;;;;;3.05;1.90;;;31.30;67.30;;;;;;4839200;29;20060;-45
2021/08/08 06:45:21;;;;;;;6.40;3.10;;;31.40;67.80;;;;;;4839681;29;20057;-45
2021/08/08 06:47:49;;;;;;;4.07;2.40;;;31.50;68.00;;;;;;4824742;29;20409;-47
2021/08/08 06:50:17;;;;;;;4.80;2.22;;;31.60;67.60;;;;;;4838816;29;20054;-44
2021/08/08 06:52:44;;;;;;;6.13;1.90;;;31.70;67.70;;;;;;4808860;29;20054;-46
2021/08/08 06:55:12;;;;;;;4.97;1.80;;;31.90;65.40;;;;;;4838910;29;20434;-44
2021/08/08 06:57:40;;;;;;;4.07;2.13;;;31.90;65.60;;;;;;4839796;29;20564;-43
2021/08/08 07:00:13;;;;;;;3.83;2.72;;;31.90;64.40;;;;;;4823522;29;20110;-45
2021/08/08 07:02:41;;;;;;;4.93;1.88;;;32.00;63.60;;;;;;4823930;29;20098;-44
2021/08/08 07:05:09;;;;;;;3.38;2.03;;;32.00;63.20;;;;;;4839070;29;20062;-46
2021/08/08 07:07:39;;;;;;;5.57;1.50;;;32.00;61.60;;;;;;4838710;29;20053;-47
2021/08/08 07:10:08;;;;;;;3.95;1.80;;;32.00;61.40;;;;;;4823211;29;20042;-44
2021/08/08 07:12:37;;;;;;;3.67;1.75;;;31.90;61.30;;;;;;4808992;29;20501;-43
2021/08/08 07:15:09;;;;;;;4.75;1.88;;;32.10;61.60;;;;;;4824187;29;20046;-44
2021/08/08 07:17:39;;;;;;;3.33;1.63;;;32.40;61.40;;;;;;4828680;29;20054;-45
2021/08/08 07:20:09;;;;;;;6.57;1.85;;;32.40;61.70;;;;;;4843082;29;20065;-45
2021/08/08 07:22:37;;;;;;;5.10;2.13;;;32.60;62.10;;;;;;4844217;29;20049;-43
2021/08/08 07:25:07;;;;;;;2.63;1.80;;;32.60;61.50;;;;;;4812787;29;20061;-44
2021/08/08 07:27:35;;;;;;;7.63;2.22;;;32.60;62.40;;;;;;4843960;29;20054;-44
2021/08/08 07:30:04;;;;;;;5.20;2.40;;;32.60;63.60;;;;;;4812654;29;20060;-44
2021/08/08 07:32:35;;;;;;;3.55;2.00;;;32.80;63.40;;;;;;4828651;29;20050;-44
2021/08/08 07:35:03;;;;;;;3.63;2.05;;;32.80;63.40;;;;;;4843108;29;20133;-43
2021/08/08 07:37:31;;;;;;;3.53;1.98;;;32.80;63.50;;;;;;4842886;29;20497;-43
2021/08/08 07:39:59;;;;;;;4.10;2.10;;;32.90;63.80;;;;;;4826757;29;20405;-44
2021/08/08 07:42:27;;;;;;;3.35;1.95;;;32.80;64.00;;;;;;4842359;29;20454;-43
2021/08/08 07:44:54;;;;;;;3.80;2.30;;;32.80;63.90;;;;;;4827481;29;20136;-43
2021/08/08 07:47:22;;;;;;;3.17;2.10;;;33.00;64.00;;;;;;4827906;29;20054;-44
2021/08/08 07:49:51;;;;;;;4.13;2.05;;;33.00;63.10;;;;;;4826921;29;20057;-55
2021/08/08 07:52:19;;;;;;;4.70;2.03;;;33.20;63.70;;;;;;4843494;29;20394;-44
2021/08/08 07:54:47;;;;;;;4.13;1.85;;;33.30;63.70;;;;;;4826970;29;20045;-44
2021/08/08 07:57:16;;;;;;;3.50;1.80;;;33.10;63.90;;;;;;4805504;29;20054;-43
2021/08/08 07:59:46;;;;;;;3.17;1.88;;;33.10;64.10;;;;;;4842381;29;20053;-44
2021/08/08 08:02:14;;;;;;;3.30;2.00;;;33.20;63.80;;;;;;4819785;29;20049;-44
2021/08/08 08:04:43;;;;;;;3.25;1.70;;;33.10;63.80;;;;;;4827495;29;20070;-43
2021/08/08 08:07:12;;;;;;;4.28;2.08;;;33.20;64.30;;;;;;4843000;29;20057;-44
2021/08/08 08:09:39;;;;;;;4.68;2.20;;;33.10;64.40;;;;;;4826555;29;20066;-43
2021/08/08 08:12:07;;;;;;;6.97;2.50;;;33.30;64.60;;;;;;4842050;29;20046;-43
2021/08/08 08:14:35;;;;;;;4.53;2.20;;;33.30;64.50;;;;;;4827295;29;20053;-44
2021/08/08 08:17:03;;;;;;;3.95;2.42;;;33.20;64.30;;;;;;4827878;29;20053;-44
2021/08/08 08:19:30;;;;;;;3.70;1.83;;;33.10;65.10;;;;;;4827215;29;20046;-43
2021/08/08 08:21:58;;;;;;;3.30;2.13;;;33.30;65.40;;;;;;4843683;29;20148;-43
2021/08/08 08:24:26;;;;;;;3.55;2.20;;;33.40;64.80;;;;;;4812044;29;20141;-43
2021/08/08 08:26:54;;;;;;;4.72;2.00;;;33.60;66.20;;;;;;4843314;29;20054;-44
2021/08/08 08:29:22;;;;;;;4.47;2.15;;;33.80;66.20;;;;;;4842091;29;20413;-43
2021/08/08 08:31:49;;;;;;;3.35;1.75;;;33.70;66.40;;;;;;4842841;29;20124;-43
2021/08/08 08:34:17;;;;;;;3.60;1.90;;;33.60;67.00;;;;;;4842170;29;20045;-44
2021/08/08 08:36:45;;;;;;;3.75;2.10;;;33.40;68.20;;;;;;4827210;29;20149;-45
2021/08/08 08:39:13;;;;;;;4.55;3.00;;;33.40;68.50;;;;;;4827046;29;20505;-44
2021/08/08 08:41:41;;;;;;;5.88;2.55;;;33.30;69.20;;;;;;4841856;29;20121;-43
2021/08/08 08:44:09;;;;;;;6.05;2.70;;;33.50;69.50;;;;;;4826230;29;20102;-43
2021/08/08 08:46:40;;;;;;;4.95;3.13;;;33.60;69.40;;;;;;4826891;29;20126;-43
2021/08/08 08:49:10;;;;;;;6.72;2.83;;;33.60;69.70;;;;;;4811916;29;20164;-43
2021/08/08 08:51:45;;;;;;;4.38;2.95;;;33.60;69.20;;;;;;4827270;29;20121;-44
2021/08/08 08:54:14;;;;;;;6.82;2.25;;;33.70;70.30;;;;;;4841922;29;20556;-46
2021/08/08 08:56:42;;;;;;;4.78;3.33;;;34.00;70.50;;;;;;4837702;29;20054;-43
2021/08/08 08:59:11;;;;;;;5.07;2.60;;;34.00;70.60;;;;;;4811185;29;20069;-43
2021/08/08 09:01:39;;;;;;;5.43;2.67;;;34.00;70.30;;;;;;4826918;29;20073;-44
2021/08/08 09:04:07;;;;;;;4.63;2.40;;;34.10;69.60;;;;;;4841620;29;20476;-43
2021/08/08 09:06:39;;;;;;;5.55;2.53;;;34.10;70.20;;;;;;4842223;29;20050;-43
2021/08/08 09:09:07;;;;;;;7.57;2.75;;;34.00;70.70;;;;;;4841998;29;20052;-43
2021/08/08 09:11:39;;;;;;;10.48;2.47;;;34.00;70.80;;;;;;4841525;29;20053;-46
2021/08/08 09:14:11;;;;;;;4.75;1.98;;;33.90;71.00;;;;;;4840317;29;20034;-44
2021/08/08 09:16:44;;;;;;;4.95;2.75;;;34.10;70.70;;;;;;4837971;29;20050;-43
2021/08/08 09:19:24;;;;;;;3.20;2.20;;;34.10;71.30;;;;;;4841606;29;20136;-44
2021/08/08 09:21:58;;;;;;;3.95;2.28;;;34.10;70.90;;;;;;4839089;29;20081;-43
2021/08/08 09:24:35;;;;;;;5.47;2.40;;;34.20;71.40;;;;;;4826023;29;20121;-43
2021/08/08 09:27:08;;;;;;;4.93;2.30;;;34.30;71.10;;;;;;4826481;29;20046;-44
2021/08/08 09:29:41;;;;;;;4.93;2.20;;;34.00;71.40;;;;;;4840755;29;20050;-43
2021/08/08 09:32:10;;;;;;;6.53;2.42;;;34.00;71.40;;;;;;4841046;29;20069;-43
2021/08/08 09:34:40;;;;;;;8.68;2.90;;;34.10;71.50;;;;;;4841098;29;20130;-44
2021/08/08 09:37:17;;;;;;;8.82;2.92;;;34.00;71.80;;;;;;4841578;29;20046;-44
2021/08/08 09:39:50;;;;;;;6.43;2.42;;;34.00;72.00;;;;;;4809788;29;20097;-45
2021/08/08 09:42:31;;;;;;;5.78;2.00;;;34.10;71.80;;;;;;4834699;29;20046;-44
2021/08/08 09:45:04;;;;;;;4.50;2.13;;;34.20;71.80;;;;;;4840539;29;20075;-43
2021/08/08 09:47:53;;;;;;;4.10;2.00;;;34.20;70.00;;;;;;4825941;29;20053;-44
2021/08/08 09:50:29;;;;;;;5.80;2.60;;;34.50;67.90;;;;;;4826458;29;20573;-45
2021/08/08 09:53:07;;;;;;;5.13;2.60;;;34.40;70.70;;;;;;4826312;29;20140;-45
2021/08/08 09:55:39;;;;;;;14.43;2.90;;;34.50;69.90;;;;;;4841351;29;20645;-44
2021/08/08 09:58:10;;;;;;;5.35;2.20;;;34.70;68.20;;;;;;4840532;29;20444;-45
2021/08/08 10:00:40;;;;;;;4.38;2.13;;;34.90;63.90;;;;;;4825186;29;20057;-44
2021/08/08 10:03:12;;;;;;;4.35;2.65;;;35.20;63.30;;;;;;4825115;29;20431;-44
2021/08/08 10:05:42;;;;;;;3.80;1.80;;;35.20;63.10;;;;;;4841619;29;20378;-44
2021/08/08 10:08:13;;;;;;;5.03;2.28;;;35.10;63.00;;;;;;4842163;29;20557;-43
2021/08/08 10:10:42;;;;;;;4.40;2.72;;;35.20;63.00;;;;;;4825686;29;20057;-43
2021/08/08 10:13:24;;;;;;;5.18;2.47;;;35.10;62.70;;;;;;4825685;29;20050;-43
2021/08/08 10:15:53;;;;;;;3.63;2.45;;;35.10;62.90;;;;;;4840904;29;20058;-53
2021/08/08 10:18:25;;;;;;;4.45;2.28;;;35.00;63.10;;;;;;4837589;29;20085;-43
2021/08/08 10:20:54;;;;;;;5.65;2.33;;;35.10;63.10;;;;;;4823167;29;20069;-44
2021/08/08 10:23:23;;;;;;;4.38;2.33;;;35.00;62.40;;;;;;4840873;29;20046;-45
2021/08/08 10:25:53;;;;;;;4.63;2.47;;;35.00;62.40;;;;;;4840594;29;20050;-44
2021/08/08 10:28:22;;;;;;;4.47;2.33;;;35.20;62.40;;;;;;4823198;29;20049;-44
2021/08/08 10:30:51;;;;;;;5.00;1.80;;;35.20;61.90;;;;;;4837329;29;20046;-43
2021/08/08 10:33:18;;;;;;;6.55;2.10;;;35.20;62.10;;;;;;4807435;29;20148;-43
2021/08/08 10:35:47;;;;;;;5.38;2.30;;;35.20;62.40;;;;;;4819101;29;20046;-44
2021/08/08 10:38:16;;;;;;;5.90;2.22;;;35.30;62.40;;;;;;4840337;29;20054;-44
2021/08/08 10:40:46;;;;;;;2.85;1.65;;;35.30;62.80;;;;;;4840552;29;20086;-43
2021/08/08 10:43:28;;;;;;;6.38;2.00;;;35.40;62.20;;;;;;4825475;29;20053;-43
2021/08/08 10:46:11;;;;;;;4.78;2.13;;;35.30;61.50;;;;;;4839403;29;20499;-43
2021/08/08 10:48:42;;;;;;;5.90;2.45;;;35.40;61.60;;;;;;4841303;29;20061;-45
2021/08/08 10:51:26;;;;;;;4.15;1.73;;;35.50;61.50;;;;;;4843350;29;20060;-43
2021/08/08 10:54:08;;;;;;;4.22;2.45;;;35.60;61.00;;;;;;4828793;29;20054;-45
2021/08/08 10:56:43;;;;;;;2.50;1.67;;;35.70;61.20;;;;;;4843518;29;20060;-44
2021/08/08 10:59:20;;;;;;;3.63;1.70;;;35.60;60.80;;;;;;4829080;29;20050;-44
2021/08/08 11:02:08;;;;;;;3.85;2.20;;;35.60;61.00;;;;;;4840589;29;20372;-44
2021/08/08 11:04:37;;;;;;;3.70;2.10;;;35.60;61.10;;;;;;4813232;29;20054;-43
2021/08/08 11:07:06;;;;;;;5.50;1.80;;;35.70;60.80;;;;;;4845262;29;20070;-43
2021/08/08 11:09:36;;;;;;;6.32;2.03;;;35.70;60.90;;;;;;4843485;29;20046;-45
2021/08/08 11:12:05;;;;;;;6.53;2.55;;;35.70;61.10;;;;;;4844917;29;20089;-43
2021/08/08 11:14:33;;;;;;;3.85;2.58;;;35.40;61.00;;;;;;4843585;29;20101;-43
2021/08/08 11:17:02;;;;;;;4.30;2.17;;;35.40;61.00;;;;;;4844855;29;20134;-44
2021/08/08 11:19:38;;;;;;;4.85;2.05;;;35.30;61.40;;;;;;4843093;29;20042;-43
2021/08/08 11:22:09;;;;;;;4.68;2.08;;;35.10;61.30;;;;;;4844776;29;20054;-43
2021/08/08 11:24:37;;;;;;;3.50;2.00;;;35.10;61.00;;;;;;4843422;29;20114;-43
2021/08/08 11:27:07;;;;;;;6.00;2.13;;;35.10;61.60;;;;;;4844086;29;20053;-43
2021/08/08 11:29:35;;;;;;;7.88;2.15;;;35.20;61.70;;;;;;4843350;29;20053;-44
2021/08/08 11:32:07;;;;;;;4.95;1.90;;;35.30;60.70;;;;;;4828220;29;20126;-44
2021/08/08 11:34:35;;;;;;;4.35;2.15;;;35.20;60.80;;;;;;4843605;29;20046;-44
2021/08/08 11:37:03;;;;;;;5.65;2.15;;;35.30;60.10;;;;;;4843435;29;20523;-43
2021/08/08 11:39:36;;;;;;;5.45;2.20;;;35.20;59.90;;;;;;4843088;29;20489;-43
2021/08/08 11:42:07;;;;;;;3.30;1.67;;;35.40;60.20;;;;;;4844908;29;20054;-44
2021/08/08 11:44:42;;;;;;;4.47;2.40;;;35.10;60.60;;;;;;4842987;29;20049;-44
2021/08/08 11:47:10;;;;;;;7.22;2.65;;;35.20;60.90;;;;;;4843662;29;20060;-43
2021/08/08 11:49:46;;;;;;;3.95;2.22;;;35.20;60.20;;;;;;4826653;29;20505;-43
2021/08/08 11:52:18;;;;;;;3.40;2.13;;;35.30;60.30;;;;;;4835862;29;20129;-44
2021/08/08 11:54:58;;;;;;;7.03;2.20;;;35.30;60.20;;;;;;4842675;29;20049;-44
2021/08/08 11:57:28;;;;;;;4.47;2.10;;;35.30;60.70;;;;;;4828079;29;20053;-44
2021/08/08 11:59:57;;;;;;;5.28;2.20;;;35.10;60.70;;;;;;4842715;29;20129;-44
2021/08/08 12:02:25;;;;;;;5.03;2.25;;;35.10;61.00;;;;;;4827787;29;20053;-43
2021/08/08 12:04:54;;;;;;;6.57;2.42;;;35.00;60.70;;;;;;4826416;29;20061;-45
2021/08/08 12:07:24;;;;;;;6.72;2.10;;;34.80;60.50;;;;;;4842953;29;20098;-43
2021/08/08 12:09:53;;;;;;;3.25;1.65;;;34.90;61.40;;;;;;4842282;29;20102;-47
2021/08/08 12:12:33;;;;;;;4.38;1.95;;;35.10;60.90;;;;;;4827566;29;20060;-43
2021/08/08 12:15:01;;;;;;;9.85;2.53;;;34.90;60.80;;;;;;4842292;29;20050;-44
2021/08/08 12:17:29;;;;;;;4.20;2.17;;;34.80;60.90;;;;;;4844191;29;20132;-43
2021/08/08 12:20:07;;;;;;;6.05;2.45;;;34.80;61.10;;;;;;4826177;29;20561;-44
2021/08/08 12:22:35;;;;;;;3.28;1.90;;;34.80;61.10;;;;;;4841956;29;20050;-44
2021/08/08 12:25:16;;;;;;;3.78;2.22;;;34.80;60.70;;;;;;4842029;29;20046;-44
2021/08/08 12:27:52;;;;;;;5.32;2.17;;;34.80;60.40;;;;;;4843868;29;20092;-43
2021/08/08 12:30:22;;;;;;;3.22;2.03;;;34.80;60.10;;;;;;4826904;29;20060;-43
2021/08/08 12:32:50;;;;;;;3.80;2.15;;;34.90;59.90;;;;;;4842579;29;20458;-43
2021/08/08 12:35:21;;;;;;;4.28;2.38;;;34.80;59.50;;;;;;4841718;29;20042;-43
2021/08/08 12:37:51;;;;;;;5.75;2.13;;;35.00;60.00;;;;;;4842795;29;20170;-47
2021/08/08 12:40:23;;;;;;;4.00;2.40;;;35.00;59.50;;;;;;4811764;29;20049;-43
2021/08/08 12:43:01;;;;;;;4.45;2.20;;;35.10;59.50;;;;;;4843708;29;20058;-43
2021/08/08 12:45:35;;;;;;;5.43;2.13;;;35.10;59.20;;;;;;4842911;29;20137;-43
2021/08/08 12:48:03;;;;;;;5.97;2.30;;;35.00;59.00;;;;;;4827595;29;20053;-44
2021/08/08 12:50:38;;;;;;;6.75;2.17;;;35.10;59.20;;;;;;4826090;29;20045;-44
2021/08/08 12:53:06;;;;;;;5.75;2.10;;;35.10;59.20;;;;;;4843098;29;20061;-44
2021/08/08 12:55:36;;;;;;;5.07;2.22;;;35.10;59.20;;;;;;4826481;29;20050;-44
2021/08/08 12:58:04;;;;;;;4.22;1.98;;;34.90;59.00;;;;;;4826417;29;20065;-43
2021/08/08 13:00:32;;;;;;;3.63;2.30;;;34.70;59.30;;;;;;4841585;29;20137;-44
2021/08/08 13:03:02;;;;;;;4.22;1.80;;;34.70;59.80;;;;;;4842050;29;20042;-43